sensor_id;sensor_type;location;lat;lon;timestamp;temperature;humidity
4578;DHT22;2301;47.354;8.528;2022-08-21T00:01:44;22.70;84.30
4578;DHT22;2301;47.354;8.528;2022-08-21T00:04:12;22.60;84.20
4578;DHT22;2301;47.354;8.528;2022-08-21T00:06:38;22.70;84.30
4578;DHT22;2301;47.354;8.528;2022-08-21T00:09:07;22.70;84.30
4578;DHT22;2301;47.354;8.528;2022-08-21T00:11:37;22.70;84.20
4578;DHT22;2301;47.354;8.528;2022-08-21T00:14:05;22.70;84.20
4578;DHT22;2301;47.354;8.528;2022-08-21T00:16:32;22.70;84.20
4578;DHT22;2301;47.354;8.528;2022-08-21T00:18:59;22.70;84.20
4578;DHT22;2301;47.354;8.528;2022-08-21T00:21:26;22.70;84.20
4578;DHT22;2301;47.354;8.528;2022-08-21T00:23:53;22.70;84.20
4578;DHT22;2301;47.354;8.528;2022-08-21T00:26:20;22.70;84.20
4578;DHT22;2301;47.354;8.528;2022-08-21T00:28:48;22.70;84.10
4578;DHT22;2301;47.354;8.528;2022-08-21T00:31:15;22.70;84.00
4578;DHT22;2301;47.354;8.528;2022-08-21T00:33:44;22.70;84.10
4578;DHT22;2301;47.354;8.528;2022-08-21T00:36:11;22.70;84.10
4578;DHT22;2301;47.354;8.528;2022-08-21T00:38:38;22.70;84.10
4578;DHT22;2301;47.354;8.528;2022-08-21T00:41:09;22.70;84.20
4578;DHT22;2301;47.354;8.528;2022-08-21T00:43:38;22.70;84.20
4578;DHT22;2301;47.354;8.528;2022-08-21T00:46:07;22.60;84.10
4578;DHT22;2301;47.354;8.528;2022-08-21T00:48:34;22.70;84.20
4578;DHT22;2301;47.354;8.528;2022-08-21T00:51:04;22.60;84.10
4578;DHT22;2301;47.354;8.528;2022-08-21T00:53:32;22.70;84.20
4578;DHT22;2301;47.354;8.528;2022-08-21T00:56:01;22.60;84.20
4578;DHT22;2301;47.354;8.528;2022-08-21T00:58:29;22.60;84.20
4578;DHT22;2301;47.354;8.528;2022-08-21T01:00:59;22.70;84.30
4578;DHT22;2301;47.354;8.528;2022-08-21T01:03:28;22.60;84.20
4578;DHT22;2301;47.354;8.528;2022-08-21T01:05:55;22.70;84.30
4578;DHT22;2301;47.354;8.528;2022-08-21T01:08:23;22.70;84.30
4578;DHT22;2301;47.354;8.528;2022-08-21T01:10:50;22.70;84.30
4578;DHT22;2301;47.354;8.528;2022-08-21T01:13:19;22.60;84.10
4578;DHT22;2301;47.354;8.528;2022-08-21T01:15:48;22.60;84.20
4578;DHT22;2301;47.354;8.528;2022-08-21T01:18:19;22.60;84.30
4578;DHT22;2301;47.354;8.528;2022-08-21T01:21:00;22.60;84.40
4578;DHT22;2301;47.354;8.528;2022-08-21T01:23:27;22.70;84.60
4578;DHT22;2301;47.354;8.528;2022-08-21T01:25:54;22.60;84.50
4578;DHT22;2301;47.354;8.528;2022-08-21T01:28:22;22.60;84.50
4578;DHT22;2301;47.354;8.528;2022-08-21T01:30:50;22.60;84.40
4578;DHT22;2301;47.354;8.528;2022-08-21T01:33:18;22.60;84.40
4578;DHT22;2301;47.354;8.528;2022-08-21T01:35:45;22.60;84.40
4578;DHT22;2301;47.354;8.528;2022-08-21T01:38:13;22.60;84.40
4578;DHT22;2301;47.354;8.528;2022-08-21T01:40:40;22.60;84.40
4578;DHT22;2301;47.354;8.528;2022-08-21T01:43:07;22.60;84.50
4578;DHT22;2301;47.354;8.528;2022-08-21T01:45:34;22.60;84.50
4578;DHT22;2301;47.354;8.528;2022-08-21T01:48:02;22.60;84.50
4578;DHT22;2301;47.354;8.528;2022-08-21T01:50:29;22.60;84.50
4578;DHT22;2301;47.354;8.528;2022-08-21T01:52:56;22.50;84.40
4578;DHT22;2301;47.354;8.528;2022-08-21T01:55:24;22.50;84.40
4578;DHT22;2301;47.354;8.528;2022-08-21T01:57:51;22.50;84.40
4578;DHT22;2301;47.354;8.528;2022-08-21T02:00:21;22.60;84.50
4578;DHT22;2301;47.354;8.528;2022-08-21T02:02:50;22.50;84.40
4578;DHT22;2301;47.354;8.528;2022-08-21T02:05:18;22.50;84.20
4578;DHT22;2301;47.354;8.528;2022-08-21T02:07:48;22.50;84.20
4578;DHT22;2301;47.354;8.528;2022-08-21T02:10:22;22.50;85.00
4578;DHT22;2301;47.354;8.528;2022-08-21T02:12:50;22.50;84.20
4578;DHT22;2301;47.354;8.528;2022-08-21T02:15:18;22.50;84.90
4578;DHT22;2301;47.354;8.528;2022-08-21T02:17:48;22.50;84.20
4578;DHT22;2301;47.354;8.528;2022-08-21T02:20:17;22.50;84.10
4578;DHT22;2301;47.354;8.528;2022-08-21T02:22:44;22.50;84.10
4578;DHT22;2301;47.354;8.528;2022-08-21T02:25:12;22.50;84.10
4578;DHT22;2301;47.354;8.528;2022-08-21T02:27:41;22.50;84.20
4578;DHT22;2301;47.354;8.528;2022-08-21T02:30:12;22.50;84.10
4578;DHT22;2301;47.354;8.528;2022-08-21T02:32:39;22.50;84.20
4578;DHT22;2301;47.354;8.528;2022-08-21T02:35:08;22.50;84.20
4578;DHT22;2301;47.354;8.528;2022-08-21T02:37:43;22.50;84.20
4578;DHT22;2301;47.354;8.528;2022-08-21T02:40:11;22.50;84.30
4578;DHT22;2301;47.354;8.528;2022-08-21T02:42:38;22.50;84.30
4578;DHT22;2301;47.354;8.528;2022-08-21T02:45:06;22.50;84.40
4578;DHT22;2301;47.354;8.528;2022-08-21T02:47:34;22.40;84.30
4578;DHT22;2301;47.354;8.528;2022-08-21T02:50:01;22.50;84.30
4578;DHT22;2301;47.354;8.528;2022-08-21T02:52:29;22.40;84.20
4578;DHT22;2301;47.354;8.528;2022-08-21T02:54:55;22.40;84.00
4578;DHT22;2301;47.354;8.528;2022-08-21T02:57:22;22.50;84.10
4578;DHT22;2301;47.354;8.528;2022-08-21T02:59:49;22.50;84.10
4578;DHT22;2301;47.354;8.528;2022-08-21T03:02:16;22.40;83.90
4578;DHT22;2301;47.354;8.528;2022-08-21T03:04:44;22.40;83.90
4578;DHT22;2301;47.354;8.528;2022-08-21T03:07:11;22.40;84.00
4578;DHT22;2301;47.354;8.528;2022-08-21T03:09:38;22.40;84.80
4578;DHT22;2301;47.354;8.528;2022-08-21T03:12:05;22.40;84.10
4578;DHT22;2301;47.354;8.528;2022-08-21T03:14:32;22.40;84.10
4578;DHT22;2301;47.354;8.528;2022-08-21T03:16:59;22.40;83.90
4578;DHT22;2301;47.354;8.528;2022-08-21T03:19:26;22.40;84.00
4578;DHT22;2301;47.354;8.528;2022-08-21T03:21:54;22.40;84.00
4578;DHT22;2301;47.354;8.528;2022-08-21T03:24:21;22.40;84.00
4578;DHT22;2301;47.354;8.528;2022-08-21T03:26:48;22.40;84.00
4578;DHT22;2301;47.354;8.528;2022-08-21T03:29:14;22.40;84.00
4578;DHT22;2301;47.354;8.528;2022-08-21T03:31:41;22.40;83.90
4578;DHT22;2301;47.354;8.528;2022-08-21T03:34:08;22.40;83.90
4578;DHT22;2301;47.354;8.528;2022-08-21T03:36:36;22.40;83.90
4578;DHT22;2301;47.354;8.528;2022-08-21T03:39:04;22.30;83.70
4578;DHT22;2301;47.354;8.528;2022-08-21T03:41:31;22.30;83.70
4578;DHT22;2301;47.354;8.528;2022-08-21T03:43:58;22.40;83.90
4578;DHT22;2301;47.354;8.528;2022-08-21T03:46:25;22.40;83.90
4578;DHT22;2301;47.354;8.528;2022-08-21T03:48:52;22.30;83.80
4578;DHT22;2301;47.354;8.528;2022-08-21T03:51:19;22.30;83.80
4578;DHT22;2301;47.354;8.528;2022-08-21T03:53:46;22.30;83.70
4578;DHT22;2301;47.354;8.528;2022-08-21T03:56:14;22.30;83.70
4578;DHT22;2301;47.354;8.528;2022-08-21T03:58:42;22.30;83.60
4578;DHT22;2301;47.354;8.528;2022-08-21T04:01:09;22.30;83.60
4578;DHT22;2301;47.354;8.528;2022-08-21T04:03:37;22.30;83.60
4578;DHT22;2301;47.354;8.528;2022-08-21T04:06:05;22.30;83.50
4578;DHT22;2301;47.354;8.528;2022-08-21T04:08:33;22.30;83.60
4578;DHT22;2301;47.354;8.528;2022-08-21T04:11:00;22.30;83.60
4578;DHT22;2301;47.354;8.528;2022-08-21T04:13:29;22.30;83.60
4578;DHT22;2301;47.354;8.528;2022-08-21T04:15:56;22.30;83.40
4578;DHT22;2301;47.354;8.528;2022-08-21T04:18:24;22.30;83.50
4578;DHT22;2301;47.354;8.528;2022-08-21T04:20:52;22.30;83.60
4578;DHT22;2301;47.354;8.528;2022-08-21T04:23:20;22.30;83.70
4578;DHT22;2301;47.354;8.528;2022-08-21T04:25:47;22.30;83.70
4578;DHT22;2301;47.354;8.528;2022-08-21T04:28:14;22.30;83.70
4578;DHT22;2301;47.354;8.528;2022-08-21T04:30:43;22.30;83.60
4578;DHT22;2301;47.354;8.528;2022-08-21T04:33:10;22.20;83.60
4578;DHT22;2301;47.354;8.528;2022-08-21T04:35:37;22.30;83.80
4578;DHT22;2301;47.354;8.528;2022-08-21T04:38:03;22.30;84.50
4578;DHT22;2301;47.354;8.528;2022-08-21T04:40:30;22.30;83.90
4578;DHT22;2301;47.354;8.528;2022-08-21T04:43:01;22.30;83.90
4578;DHT22;2301;47.354;8.528;2022-08-21T04:45:30;22.20;83.90
4578;DHT22;2301;47.354;8.528;2022-08-21T04:48:00;22.30;84.10
4578;DHT22;2301;47.354;8.528;2022-08-21T04:50:30;22.20;84.00
4578;DHT22;2301;47.354;8.528;2022-08-21T04:53:00;22.30;84.10
4578;DHT22;2301;47.354;8.528;2022-08-21T04:55:27;22.30;84.20
4578;DHT22;2301;47.354;8.528;2022-08-21T04:57:55;22.20;84.80
4578;DHT22;2301;47.354;8.528;2022-08-21T05:00:23;22.30;84.30
4578;DHT22;2301;47.354;8.528;2022-08-21T05:02:51;22.20;84.20
4578;DHT22;2301;47.354;8.528;2022-08-21T05:05:23;22.30;84.30
4578;DHT22;2301;47.354;8.528;2022-08-21T05:07:51;22.30;84.30
4578;DHT22;2301;47.354;8.528;2022-08-21T05:10:19;22.20;84.20
4578;DHT22;2301;47.354;8.528;2022-08-21T05:12:47;22.30;84.20
4578;DHT22;2301;47.354;8.528;2022-08-21T05:15:14;22.30;84.10
4578;DHT22;2301;47.354;8.528;2022-08-21T05:17:42;22.30;84.10
4578;DHT22;2301;47.354;8.528;2022-08-21T05:20:10;22.30;84.20
4578;DHT22;2301;47.354;8.528;2022-08-21T05:22:39;22.30;84.20
4578;DHT22;2301;47.354;8.528;2022-08-21T05:25:07;22.30;84.20
4578;DHT22;2301;47.354;8.528;2022-08-21T05:27:34;22.30;84.00
4578;DHT22;2301;47.354;8.528;2022-08-21T05:30:01;22.30;84.70
4578;DHT22;2301;47.354;8.528;2022-08-21T05:32:29;22.30;84.50
4578;DHT22;2301;47.354;8.528;2022-08-21T05:34:55;22.20;84.90
4578;DHT22;2301;47.354;8.528;2022-08-21T05:37:22;22.00;85.00
4578;DHT22;2301;47.354;8.528;2022-08-21T05:39:51;21.90;85.70
4578;DHT22;2301;47.354;8.528;2022-08-21T05:42:17;21.80;86.30
4578;DHT22;2301;47.354;8.528;2022-08-21T05:44:44;21.70;86.80
4578;DHT22;2301;47.354;8.528;2022-08-21T05:47:11;21.60;87.20
4578;DHT22;2301;47.354;8.528;2022-08-21T05:49:38;21.60;87.50
4578;DHT22;2301;47.354;8.528;2022-08-21T05:52:05;21.50;87.80
4578;DHT22;2301;47.354;8.528;2022-08-21T05:54:32;21.50;88.30
4578;DHT22;2301;47.354;8.528;2022-08-21T05:57:00;21.50;88.50
4578;DHT22;2301;47.354;8.528;2022-08-21T05:59:27;21.50;88.90
4578;DHT22;2301;47.354;8.528;2022-08-21T06:01:54;21.40;89.30
4578;DHT22;2301;47.354;8.528;2022-08-21T06:04:21;21.40;89.60
4578;DHT22;2301;47.354;8.528;2022-08-21T06:06:48;21.40;90.00
4578;DHT22;2301;47.354;8.528;2022-08-21T06:09:15;21.40;90.10
4578;DHT22;2301;47.354;8.528;2022-08-21T06:11:41;21.40;90.00
4578;DHT22;2301;47.354;8.528;2022-08-21T06:14:10;21.40;89.70
4578;DHT22;2301;47.354;8.528;2022-08-21T06:16:40;21.40;89.30
4578;DHT22;2301;47.354;8.528;2022-08-21T06:19:06;21.40;89.30
4578;DHT22;2301;47.354;8.528;2022-08-21T06:21:33;21.40;89.70
4578;DHT22;2301;47.354;8.528;2022-08-21T06:24:00;21.40;89.80
4578;DHT22;2301;47.354;8.528;2022-08-21T06:26:27;21.40;89.90
4578;DHT22;2301;47.354;8.528;2022-08-21T06:28:54;21.40;90.10
4578;DHT22;2301;47.354;8.528;2022-08-21T06:31:24;21.40;90.20
4578;DHT22;2301;47.354;8.528;2022-08-21T06:33:52;21.40;90.20
4578;DHT22;2301;47.354;8.528;2022-08-21T06:36:19;21.40;90.20
4578;DHT22;2301;47.354;8.528;2022-08-21T06:38:47;21.50;90.40
4578;DHT22;2301;47.354;8.528;2022-08-21T06:41:14;21.50;90.60
4578;DHT22;2301;47.354;8.528;2022-08-21T06:43:41;21.60;90.60
4578;DHT22;2301;47.354;8.528;2022-08-21T06:46:08;21.80;91.00
4578;DHT22;2301;47.354;8.528;2022-08-21T06:48:36;22.00;91.00
4578;DHT22;2301;47.354;8.528;2022-08-21T06:51:03;22.10;90.80
4578;DHT22;2301;47.354;8.528;2022-08-21T06:53:30;22.20;90.20
4578;DHT22;2301;47.354;8.528;2022-08-21T06:55:58;22.20;89.80
4578;DHT22;2301;47.354;8.528;2022-08-21T06:58:25;22.20;89.90
4578;DHT22;2301;47.354;8.528;2022-08-21T07:00:52;22.30;89.50
4578;DHT22;2301;47.354;8.528;2022-08-21T07:03:20;22.50;90.10
4578;DHT22;2301;47.354;8.528;2022-08-21T07:05:49;22.70;89.20
4578;DHT22;2301;47.354;8.528;2022-08-21T07:08:17;22.80;88.40
4578;DHT22;2301;47.354;8.528;2022-08-21T07:10:44;23.00;88.20
4578;DHT22;2301;47.354;8.528;2022-08-21T07:13:11;23.20;87.90
4578;DHT22;2301;47.354;8.528;2022-08-21T07:15:39;23.40;87.20
4578;DHT22;2301;47.354;8.528;2022-08-21T07:18:06;23.70;86.00
4578;DHT22;2301;47.354;8.528;2022-08-21T07:20:33;23.90;86.20
4578;DHT22;2301;47.354;8.528;2022-08-21T07:23:03;24.10;84.80
4578;DHT22;2301;47.354;8.528;2022-08-21T07:25:31;24.20;83.10
4578;DHT22;2301;47.354;8.528;2022-08-21T07:27:58;24.20;82.30
4578;DHT22;2301;47.354;8.528;2022-08-21T07:30:25;24.30;82.10
4578;DHT22;2301;47.354;8.528;2022-08-21T07:32:52;24.40;81.30
4578;DHT22;2301;47.354;8.528;2022-08-21T07:35:20;24.60;81.50
4578;DHT22;2301;47.354;8.528;2022-08-21T07:37:47;24.80;79.50
4578;DHT22;2301;47.354;8.528;2022-08-21T07:40:17;24.80;78.40
4578;DHT22;2301;47.354;8.528;2022-08-21T07:42:47;24.70;78.20
4578;DHT22;2301;47.354;8.528;2022-08-21T07:45:15;24.60;78.30
4578;DHT22;2301;47.354;8.528;2022-08-21T07:47:42;24.60;78.90
4578;DHT22;2301;47.354;8.528;2022-08-21T07:50:10;24.80;79.80
4578;DHT22;2301;47.354;8.528;2022-08-21T07:52:37;24.90;78.20
4578;DHT22;2301;47.354;8.528;2022-08-21T07:55:06;25.10;77.80
4578;DHT22;2301;47.354;8.528;2022-08-21T07:57:34;25.50;77.10
4578;DHT22;2301;47.354;8.528;2022-08-21T08:00:02;25.90;75.90
4578;DHT22;2301;47.354;8.528;2022-08-21T08:02:30;26.30;74.40
4578;DHT22;2301;47.354;8.528;2022-08-21T08:04:59;26.70;73.20
4578;DHT22;2301;47.354;8.528;2022-08-21T08:07:26;27.20;71.80
4578;DHT22;2301;47.354;8.528;2022-08-21T08:09:53;27.70;70.90
4578;DHT22;2301;47.354;8.528;2022-08-21T08:12:20;28.10;68.50
4578;DHT22;2301;47.354;8.528;2022-08-21T08:14:49;28.40;67.60
4578;DHT22;2301;47.354;8.528;2022-08-21T08:17:16;28.70;66.30
4578;DHT22;2301;47.354;8.528;2022-08-21T08:19:47;29.20;64.90
4578;DHT22;2301;47.354;8.528;2022-08-21T08:22:15;29.70;62.60
4578;DHT22;2301;47.354;8.528;2022-08-21T08:24:42;30.20;59.60
4578;DHT22;2301;47.354;8.528;2022-08-21T08:27:09;30.50;58.90
4578;DHT22;2301;47.354;8.528;2022-08-21T08:29:36;30.60;58.20
4578;DHT22;2301;47.354;8.528;2022-08-21T08:32:05;30.70;58.60
4578;DHT22;2301;47.354;8.528;2022-08-21T08:34:33;30.70;58.60
4578;DHT22;2301;47.354;8.528;2022-08-21T08:37:01;30.70;57.70
4578;DHT22;2301;47.354;8.528;2022-08-21T08:39:28;30.90;57.30
4578;DHT22;2301;47.354;8.528;2022-08-21T08:41:58;31.30;57.10
4578;DHT22;2301;47.354;8.528;2022-08-21T08:44:26;31.40;55.50
4578;DHT22;2301;47.354;8.528;2022-08-21T08:46:53;32.20;54.60
4578;DHT22;2301;47.354;8.528;2022-08-21T08:49:30;33.10;52.60
4578;DHT22;2301;47.354;8.528;2022-08-21T08:52:01;33.50;51.10
4578;DHT22;2301;47.354;8.528;2022-08-21T08:54:31;33.20;51.30
4578;DHT22;2301;47.354;8.528;2022-08-21T08:57:00;33.00;50.50
4578;DHT22;2301;47.354;8.528;2022-08-21T08:59:37;32.80;50.40
4578;DHT22;2301;47.354;8.528;2022-08-21T09:02:05;32.70;50.90
4578;DHT22;2301;47.354;8.528;2022-08-21T09:04:33;32.70;51.00
4578;DHT22;2301;47.354;8.528;2022-08-21T09:07:08;32.70;51.20
4578;DHT22;2301;47.354;8.528;2022-08-21T09:09:48;32.70;51.00
4578;DHT22;2301;47.354;8.528;2022-08-21T09:12:26;32.90;50.90
4578;DHT22;2301;47.354;8.528;2022-08-21T09:15:03;32.80;49.70
4578;DHT22;2301;47.354;8.528;2022-08-21T09:17:39;32.40;49.90
4578;DHT22;2301;47.354;8.528;2022-08-21T09:20:17;32.80;50.70
4578;DHT22;2301;47.354;8.528;2022-08-21T09:22:54;33.30;50.20
4578;DHT22;2301;47.354;8.528;2022-08-21T09:25:27;33.60;49.00
4578;DHT22;2301;47.354;8.528;2022-08-21T09:27:54;34.00;48.30
4578;DHT22;2301;47.354;8.528;2022-08-21T09:30:26;34.20;48.00
4578;DHT22;2301;47.354;8.528;2022-08-21T09:32:53;34.50;47.40
4578;DHT22;2301;47.354;8.528;2022-08-21T09:35:22;34.60;46.80
4578;DHT22;2301;47.354;8.528;2022-08-21T09:37:53;34.80;46.80
4578;DHT22;2301;47.354;8.528;2022-08-21T09:40:29;34.90;46.40
4578;DHT22;2301;47.354;8.528;2022-08-21T09:42:59;35.20;45.70
4578;DHT22;2301;47.354;8.528;2022-08-21T09:45:26;35.60;45.30
4578;DHT22;2301;47.354;8.528;2022-08-21T09:47:53;36.00;44.70
4578;DHT22;2301;47.354;8.528;2022-08-21T09:50:23;36.00;44.10
4578;DHT22;2301;47.354;8.528;2022-08-21T09:52:54;36.10;44.00
4578;DHT22;2301;47.354;8.528;2022-08-21T09:55:30;36.10;43.50
4578;DHT22;2301;47.354;8.528;2022-08-21T09:58:15;36.00;43.20
4578;DHT22;2301;47.354;8.528;2022-08-21T10:00:43;35.60;43.40
4578;DHT22;2301;47.354;8.528;2022-08-21T10:03:13;35.20;43.80
4578;DHT22;2301;47.354;8.528;2022-08-21T10:05:55;34.80;44.80
4578;DHT22;2301;47.354;8.528;2022-08-21T10:08:24;34.60;44.60
4578;DHT22;2301;47.354;8.528;2022-08-21T10:10:54;34.40;45.00
4578;DHT22;2301;47.354;8.528;2022-08-21T10:13:28;34.50;45.60
4578;DHT22;2301;47.354;8.528;2022-08-21T10:16:08;34.60;45.30
4578;DHT22;2301;47.354;8.528;2022-08-21T10:18:41;34.80;45.10
4578;DHT22;2301;47.354;8.528;2022-08-21T10:21:23;35.00;44.90
4578;DHT22;2301;47.354;8.528;2022-08-21T10:24:00;35.50;44.80
4578;DHT22;2301;47.354;8.528;2022-08-21T10:26:38;36.00;43.90
4578;DHT22;2301;47.354;8.528;2022-08-21T10:29:16;36.50;42.80
4578;DHT22;2301;47.354;8.528;2022-08-21T10:31:52;36.70;42.20
4578;DHT22;2301;47.354;8.528;2022-08-21T10:34:30;36.70;41.60
4578;DHT22;2301;47.354;8.528;2022-08-21T10:37:11;36.60;42.10
4578;DHT22;2301;47.354;8.528;2022-08-21T10:39:49;36.40;42.00
4578;DHT22;2301;47.354;8.528;2022-08-21T10:42:35;36.00;41.80
4578;DHT22;2301;47.354;8.528;2022-08-21T10:45:13;35.30;42.10
4578;DHT22;2301;47.354;8.528;2022-08-21T10:47:46;34.60;43.00
4578;DHT22;2301;47.354;8.528;2022-08-21T10:50:23;33.90;44.00
4578;DHT22;2301;47.354;8.528;2022-08-21T10:53:03;33.80;44.50
4578;DHT22;2301;47.354;8.528;2022-08-21T10:55:35;34.10;44.40
4578;DHT22;2301;47.354;8.528;2022-08-21T10:58:08;34.40;44.40
4578;DHT22;2301;47.354;8.528;2022-08-21T11:00:40;34.40;44.10
4578;DHT22;2301;47.354;8.528;2022-08-21T11:03:12;34.70;43.70
4578;DHT22;2301;47.354;8.528;2022-08-21T11:05:42;35.00;43.00
4578;DHT22;2301;47.354;8.528;2022-08-21T11:08:14;35.40;42.90
4578;DHT22;2301;47.354;8.528;2022-08-21T11:10:46;35.70;42.20
4578;DHT22;2301;47.354;8.528;2022-08-21T11:13:21;35.70;41.60
4578;DHT22;2301;47.354;8.528;2022-08-21T11:15:54;35.90;41.40
4578;DHT22;2301;47.354;8.528;2022-08-21T11:18:26;35.90;41.80
4578;DHT22;2301;47.354;8.528;2022-08-21T11:21:02;35.80;41.10
4578;DHT22;2301;47.354;8.528;2022-08-21T11:23:38;35.60;40.80
4578;DHT22;2301;47.354;8.528;2022-08-21T11:26:13;35.30;41.30
4578;DHT22;2301;47.354;8.528;2022-08-21T11:28:45;34.90;41.50
4578;DHT22;2301;47.354;8.528;2022-08-21T11:31:24;34.50;41.40
4578;DHT22;2301;47.354;8.528;2022-08-21T11:34:04;34.30;42.30
4578;DHT22;2301;47.354;8.528;2022-08-21T11:36:41;34.30;43.10
4578;DHT22;2301;47.354;8.528;2022-08-21T11:39:19;34.40;43.40
4578;DHT22;2301;47.354;8.528;2022-08-21T11:41:54;34.40;42.90
4578;DHT22;2301;47.354;8.528;2022-08-21T11:44:44;34.10;42.60
4578;DHT22;2301;47.354;8.528;2022-08-21T11:47:15;33.50;42.80
4578;DHT22;2301;47.354;8.528;2022-08-21T11:50:02;33.10;43.20
4578;DHT22;2301;47.354;8.528;2022-08-21T11:52:34;32.70;44.00
4578;DHT22;2301;47.354;8.528;2022-08-21T11:55:06;32.40;44.80
4578;DHT22;2301;47.354;8.528;2022-08-21T11:57:38;32.20;44.70
4578;DHT22;2301;47.354;8.528;2022-08-21T12:00:11;31.90;45.60
4578;DHT22;2301;47.354;8.528;2022-08-21T12:02:42;31.70;45.60
4578;DHT22;2301;47.354;8.528;2022-08-21T12:05:24;31.70;46.60
4578;DHT22;2301;47.354;8.528;2022-08-21T12:08:02;32.00;45.30
4578;DHT22;2301;47.354;8.528;2022-08-21T12:10:35;32.10;44.70
4578;DHT22;2301;47.354;8.528;2022-08-21T12:13:08;32.30;44.80
4578;DHT22;2301;47.354;8.528;2022-08-21T12:15:37;32.50;45.30
4578;DHT22;2301;47.354;8.528;2022-08-21T12:18:05;32.20;44.20
4578;DHT22;2301;47.354;8.528;2022-08-21T12:20:39;31.90;44.10
4578;DHT22;2301;47.354;8.528;2022-08-21T12:23:16;31.70;44.90
4578;DHT22;2301;47.354;8.528;2022-08-21T12:25:47;31.40;45.80
4578;DHT22;2301;47.354;8.528;2022-08-21T12:28:25;31.10;45.90
4578;DHT22;2301;47.354;8.528;2022-08-21T12:30:52;30.90;45.40
4578;DHT22;2301;47.354;8.528;2022-08-21T12:33:23;30.70;46.40
4578;DHT22;2301;47.354;8.528;2022-08-21T12:35:52;30.60;46.50
4578;DHT22;2301;47.354;8.528;2022-08-21T12:38:23;30.40;46.40
4578;DHT22;2301;47.354;8.528;2022-08-21T12:40:57;30.30;47.10
4578;DHT22;2301;47.354;8.528;2022-08-21T12:43:30;30.20;47.30
4578;DHT22;2301;47.354;8.528;2022-08-21T12:45:57;30.30;47.80
4578;DHT22;2301;47.354;8.528;2022-08-21T12:48:31;30.50;47.50
4578;DHT22;2301;47.354;8.528;2022-08-21T12:51:07;30.60;46.10
4578;DHT22;2301;47.354;8.528;2022-08-21T12:53:41;30.80;46.30
4578;DHT22;2301;47.354;8.528;2022-08-21T12:56:12;30.80;45.30
4578;DHT22;2301;47.354;8.528;2022-08-21T12:58:41;30.80;46.20
4578;DHT22;2301;47.354;8.528;2022-08-21T13:01:17;30.80;46.80
4578;DHT22;2301;47.354;8.528;2022-08-21T13:03:46;30.90;46.90
4578;DHT22;2301;47.354;8.528;2022-08-21T13:06:15;31.10;46.60
4578;DHT22;2301;47.354;8.528;2022-08-21T13:08:44;31.30;45.50
4578;DHT22;2301;47.354;8.528;2022-08-21T13:11:16;31.50;45.30
4578;DHT22;2301;47.354;8.528;2022-08-21T13:13:48;31.50;43.90
4578;DHT22;2301;47.354;8.528;2022-08-21T13:16:19;31.40;43.90
4578;DHT22;2301;47.354;8.528;2022-08-21T13:18:53;31.50;44.70
4578;DHT22;2301;47.354;8.528;2022-08-21T13:21:20;31.50;43.50
4578;DHT22;2301;47.354;8.528;2022-08-21T13:23:47;31.50;43.00
4578;DHT22;2301;47.354;8.528;2022-08-21T13:26:18;31.60;43.40
4578;DHT22;2301;47.354;8.528;2022-08-21T13:28:45;31.60;43.60
4578;DHT22;2301;47.354;8.528;2022-08-21T13:31:18;31.80;43.30
4578;DHT22;2301;47.354;8.528;2022-08-21T13:33:48;31.90;43.20
4578;DHT22;2301;47.354;8.528;2022-08-21T13:36:20;31.90;42.20
4578;DHT22;2301;47.354;8.528;2022-08-21T13:38:48;31.90;41.10
4578;DHT22;2301;47.354;8.528;2022-08-21T13:41:21;31.70;41.00
4578;DHT22;2301;47.354;8.528;2022-08-21T13:43:50;31.80;42.30
4578;DHT22;2301;47.354;8.528;2022-08-21T13:46:24;31.80;42.10
4578;DHT22;2301;47.354;8.528;2022-08-21T13:48:51;31.80;41.80
4578;DHT22;2301;47.354;8.528;2022-08-21T13:51:20;31.80;42.20
4578;DHT22;2301;47.354;8.528;2022-08-21T13:53:49;31.90;42.40
4578;DHT22;2301;47.354;8.528;2022-08-21T13:56:28;32.00;42.50
4578;DHT22;2301;47.354;8.528;2022-08-21T13:58:57;32.10;41.00
4578;DHT22;2301;47.354;8.528;2022-08-21T14:01:28;32.00;40.80
4578;DHT22;2301;47.354;8.528;2022-08-21T14:03:58;31.90;40.40
4578;DHT22;2301;47.354;8.528;2022-08-21T14:06:32;31.90;41.30
4578;DHT22;2301;47.354;8.528;2022-08-21T14:09:02;31.80;41.50
4578;DHT22;2301;47.354;8.528;2022-08-21T14:11:34;31.80;41.40
4578;DHT22;2301;47.354;8.528;2022-08-21T14:14:04;31.80;41.10
4578;DHT22;2301;47.354;8.528;2022-08-21T14:16:43;31.80;41.20
4578;DHT22;2301;47.354;8.528;2022-08-21T14:19:18;31.80;41.40
4578;DHT22;2301;47.354;8.528;2022-08-21T14:21:46;31.80;40.70
4578;DHT22;2301;47.354;8.528;2022-08-21T14:24:14;31.90;41.10
4578;DHT22;2301;47.354;8.528;2022-08-21T14:26:55;31.90;40.50
4578;DHT22;2301;47.354;8.528;2022-08-21T14:29:25;31.90;40.10
4578;DHT22;2301;47.354;8.528;2022-08-21T14:31:55;31.80;40.00
4578;DHT22;2301;47.354;8.528;2022-08-21T14:34:24;31.90;39.80
4578;DHT22;2301;47.354;8.528;2022-08-21T14:36:52;31.90;40.50
4578;DHT22;2301;47.354;8.528;2022-08-21T14:39:18;31.80;39.60
4578;DHT22;2301;47.354;8.528;2022-08-21T14:41:46;31.80;39.10
4578;DHT22;2301;47.354;8.528;2022-08-21T14:44:16;31.80;39.10
4578;DHT22;2301;47.354;8.528;2022-08-21T14:46:43;31.70;37.80
4578;DHT22;2301;47.354;8.528;2022-08-21T14:49:11;31.60;39.10
4578;DHT22;2301;47.354;8.528;2022-08-21T14:51:38;31.50;38.60
4578;DHT22;2301;47.354;8.528;2022-08-21T14:54:05;31.50;38.80
4578;DHT22;2301;47.354;8.528;2022-08-21T14:56:33;31.50;39.10
4578;DHT22;2301;47.354;8.528;2022-08-21T14:59:03;31.50;39.10
4578;DHT22;2301;47.354;8.528;2022-08-21T15:01:32;31.50;38.70
4578;DHT22;2301;47.354;8.528;2022-08-21T15:04:01;31.50;38.20
4578;DHT22;2301;47.354;8.528;2022-08-21T15:06:28;31.50;37.80
4578;DHT22;2301;47.354;8.528;2022-08-21T15:08:54;31.50;37.50
4578;DHT22;2301;47.354;8.528;2022-08-21T15:11:23;31.50;37.20
4578;DHT22;2301;47.354;8.528;2022-08-21T15:13:55;31.40;36.80
4578;DHT22;2301;47.354;8.528;2022-08-21T15:16:22;31.40;37.40
4578;DHT22;2301;47.354;8.528;2022-08-21T15:18:51;31.40;37.90
4578;DHT22;2301;47.354;8.528;2022-08-21T15:21:18;31.30;37.90
4578;DHT22;2301;47.354;8.528;2022-08-21T15:23:44;31.30;38.20
4578;DHT22;2301;47.354;8.528;2022-08-21T15:26:11;31.30;39.00
4578;DHT22;2301;47.354;8.528;2022-08-21T15:28:38;31.20;38.20
4578;DHT22;2301;47.354;8.528;2022-08-21T15:31:06;31.20;37.90
4578;DHT22;2301;47.354;8.528;2022-08-21T15:33:33;31.10;38.70
4578;DHT22;2301;47.354;8.528;2022-08-21T15:36:01;31.00;38.40
4578;DHT22;2301;47.354;8.528;2022-08-21T15:38:28;31.00;37.60
4578;DHT22;2301;47.354;8.528;2022-08-21T15:40:55;30.90;38.80
4578;DHT22;2301;47.354;8.528;2022-08-21T15:43:25;30.90;38.90
4578;DHT22;2301;47.354;8.528;2022-08-21T15:45:52;30.90;39.10
4578;DHT22;2301;47.354;8.528;2022-08-21T15:48:20;30.80;39.80
4578;DHT22;2301;47.354;8.528;2022-08-21T15:50:47;30.80;38.80
4578;DHT22;2301;47.354;8.528;2022-08-21T15:53:16;30.80;38.30
4578;DHT22;2301;47.354;8.528;2022-08-21T15:55:43;30.70;38.80
4578;DHT22;2301;47.354;8.528;2022-08-21T15:58:13;30.70;38.90
4578;DHT22;2301;47.354;8.528;2022-08-21T16:00:42;30.60;38.20
4578;DHT22;2301;47.354;8.528;2022-08-21T16:03:11;30.50;37.50
4578;DHT22;2301;47.354;8.528;2022-08-21T16:05:40;30.50;37.60
4578;DHT22;2301;47.354;8.528;2022-08-21T16:08:08;30.40;38.90
4578;DHT22;2301;47.354;8.528;2022-08-21T16:10:37;30.30;38.30
4578;DHT22;2301;47.354;8.528;2022-08-21T16:13:09;30.30;38.90
4578;DHT22;2301;47.354;8.528;2022-08-21T16:15:38;30.30;38.80
4578;DHT22;2301;47.354;8.528;2022-08-21T16:18:05;30.20;37.90